createdAt,value
2023-02-08T00:00:49.945Z,19.50
2023-02-08T00:03:11.786Z,18.70
2023-02-08T00:05:33.381Z,21.27
2023-02-08T00:07:54.835Z,16.47
2023-02-08T00:10:16.325Z,16.23
2023-02-08T00:12:37.963Z,17.87
2023-02-08T00:14:59.570Z,20.00
2023-02-08T00:17:21.032Z,18.80
2023-02-08T00:19:42.617Z,18.37
2023-02-08T00:22:04.152Z,16.87
2023-02-08T00:24:25.597Z,13.53
2023-02-08T00:26:47.052Z,14.03
2023-02-08T00:29:08.493Z,14.30
2023-02-08T00:31:30.128Z,13.73
2023-02-08T00:33:51.597Z,13.97
2023-02-08T00:36:13.137Z,13.83
2023-02-08T00:38:35.518Z,13.97
2023-02-08T00:40:57.084Z,14.23
2023-02-08T00:43:18.622Z,21.50
2023-02-08T00:45:40.120Z,20.43
2023-02-08T00:48:01.561Z,17.90
2023-02-08T00:50:22.974Z,15.10
2023-02-08T00:52:44.479Z,17.03
2023-02-08T00:55:06.531Z,18.47
2023-02-08T00:57:27.993Z,18.20
2023-02-08T00:59:49.484Z,20.37
2023-02-08T01:02:11.177Z,18.37
2023-02-08T01:04:32.629Z,19.33
2023-02-08T01:06:54.138Z,20.57
2023-02-08T01:09:15.722Z,16.77
2023-02-08T01:11:37.178Z,14.40
2023-02-08T01:13:58.661Z,15.00
2023-02-08T01:16:23.144Z,13.77
2023-02-08T01:18:47.144Z,13.37
2023-02-08T01:21:12.266Z,13.73
2023-02-08T01:23:33.729Z,14.30
2023-02-08T01:25:55.136Z,14.83
2023-02-08T01:28:16.628Z,13.43
2023-02-08T01:30:38.343Z,13.10
2023-02-08T01:33:00.201Z,12.97
2023-02-08T01:35:21.630Z,12.40
2023-02-08T01:37:43.070Z,12.77
2023-02-08T01:40:04.846Z,13.07
2023-02-08T01:42:26.324Z,12.53
2023-02-08T01:45:15.499Z,11.87
2023-02-08T01:47:36.978Z,11.53
2023-02-08T01:49:58.458Z,11.00
2023-02-08T01:52:24.775Z,12.47
2023-02-08T01:55:15.947Z,14.93
2023-02-08T01:57:37.593Z,30.43
2023-02-08T02:00:04.356Z,25.93
2023-02-08T02:02:26.457Z,24.67
2023-02-08T02:04:49.583Z,19.73
2023-02-08T02:07:12.668Z,23.23
2023-02-08T02:09:43.993Z,23.90
2023-02-08T02:12:08.442Z,37.30
2023-02-08T02:14:31.175Z,27.53
2023-02-08T02:16:52.612Z,32.67
2023-02-08T02:19:47.361Z,25.60
2023-02-08T02:22:39.698Z,24.93
2023-02-08T02:25:32.936Z,20.00
2023-02-08T02:27:57.360Z,16.17
2023-02-08T02:30:44.321Z,16.03
2023-02-08T02:33:11.765Z,20.53
2023-02-08T02:35:54.766Z,18.07
2023-02-08T02:38:37.803Z,14.67
2023-02-08T02:41:14.760Z,15.67
2023-02-08T02:43:46.571Z,17.90
2023-02-08T02:46:24.267Z,16.87
2023-02-08T02:48:53.446Z,11.60
2023-02-08T02:51:25.346Z,12.73
2023-02-08T02:54:00.171Z,11.60
2023-02-08T02:56:25.695Z,10.30
2023-02-08T02:58:47.273Z,11.73
2023-02-08T03:01:08.747Z,17.80
2023-02-08T03:03:33.315Z,21.80
2023-02-08T03:06:01.027Z,19.93
2023-02-08T03:08:50.289Z,17.43
2023-02-08T03:11:20.733Z,14.63
2023-02-08T03:13:47.986Z,15.57
2023-02-08T03:16:28.293Z,14.47
2023-02-08T03:19:01.654Z,13.63
2023-02-08T03:21:42.319Z,13.60
2023-02-08T03:24:57.102Z,12.33
2023-02-08T03:27:27.581Z,10.70
2023-02-08T03:29:59.536Z,9.70
2023-02-08T03:32:34.723Z,8.73
2023-02-08T03:35:32.941Z,9.33
2023-02-08T03:38:00.517Z,8.93
2023-02-08T03:40:32.678Z,8.57
2023-02-08T03:42:58.219Z,8.97
2023-02-08T03:45:23.989Z,8.60
2023-02-08T03:47:49.427Z,9.43
2023-02-08T03:50:14.366Z,8.87
2023-02-08T03:52:36.583Z,8.43
2023-02-08T03:55:04.277Z,9.03
2023-02-08T03:57:34.846Z,9.63
2023-02-08T04:00:09.146Z,9.70
2023-02-08T04:02:36.244Z,9.20
2023-02-08T04:05:00.571Z,9.50
2023-02-08T04:07:22.479Z,9.37
2023-02-08T04:09:44.177Z,9.70
2023-02-08T04:12:06.266Z,9.50
2023-02-08T04:14:27.736Z,9.40
2023-02-08T04:16:49.156Z,9.13
2023-02-08T04:19:10.598Z,8.77
2023-02-08T04:21:32.654Z,9.57
2023-02-08T04:23:54.098Z,9.10
2023-02-08T04:26:15.546Z,10.13
2023-02-08T04:28:37.036Z,12.07
2023-02-08T04:30:58.642Z,10.40
2023-02-08T04:33:20.107Z,10.03
2023-02-08T04:35:42.782Z,10.30
2023-02-08T04:38:04.243Z,10.40
2023-02-08T04:40:25.756Z,9.60
2023-02-08T04:42:47.207Z,9.30
2023-02-08T04:45:09.729Z,9.70
2023-02-08T04:47:31.221Z,11.73
2023-02-08T04:49:52.672Z,23.30
2023-02-08T04:52:14.091Z,14.53
2023-02-08T04:54:35.611Z,13.87
2023-02-08T04:56:57.041Z,16.87
2023-02-08T04:59:18.957Z,17.70
2023-02-08T05:01:40.428Z,16.50
2023-02-08T05:04:01.909Z,14.43
2023-02-08T05:06:23.352Z,11.83
2023-02-08T05:08:44.823Z,10.97
2023-02-08T05:11:06.355Z,12.33
2023-02-08T05:13:27.837Z,11.53
2023-02-08T05:15:49.312Z,13.13
2023-02-08T05:18:10.792Z,12.30
2023-02-08T05:20:33.728Z,12.57
2023-02-08T05:22:55.178Z,11.27
2023-02-08T05:25:18.052Z,11.27
2023-02-08T05:27:39.500Z,10.90
2023-02-08T05:30:01.000Z,11.70
2023-02-08T05:32:22.447Z,9.80
2023-02-08T05:34:43.986Z,10.00
2023-02-08T05:37:05.580Z,10.03
2023-02-08T05:39:27.032Z,11.03
2023-02-08T05:41:48.490Z,8.77
2023-02-08T05:44:10.256Z,10.07
2023-02-08T05:46:31.718Z,9.47
2023-02-08T05:48:54.144Z,8.47
2023-02-08T05:51:15.616Z,9.00
2023-02-08T05:53:37.747Z,8.60
2023-02-08T05:55:59.402Z,9.43
2023-02-08T05:58:20.905Z,9.93
2023-02-08T06:00:43.092Z,10.27
2023-02-08T06:03:04.757Z,10.13
2023-02-08T06:05:28.140Z,10.20
2023-02-08T06:07:49.555Z,9.30
2023-02-08T06:10:11.630Z,9.97
2023-02-08T06:12:33.117Z,9.40
2023-02-08T06:14:54.561Z,9.03
2023-02-08T06:17:15.985Z,9.80
2023-02-08T06:19:37.417Z,14.73
2023-02-08T06:21:58.890Z,13.23
2023-02-08T06:24:20.381Z,14.93
2023-02-08T06:26:41.906Z,16.93
2023-02-08T06:29:03.548Z,16.50
2023-02-08T06:31:25.190Z,18.30
2023-02-08T06:33:46.649Z,24.40
2023-02-08T06:36:08.466Z,23.30
2023-02-08T06:38:29.920Z,16.07
2023-02-08T06:40:51.408Z,16.93
2023-02-08T06:43:13.077Z,15.03
2023-02-08T06:45:34.727Z,11.87
2023-02-08T06:47:56.171Z,12.83
2023-02-08T06:50:17.689Z,10.67
2023-02-08T06:52:39.159Z,11.20
2023-02-08T06:55:00.614Z,11.40
2023-02-08T06:57:22.051Z,11.70
2023-02-08T06:59:43.606Z,14.03
2023-02-08T07:02:06.032Z,13.80
2023-02-08T07:04:27.526Z,12.97
2023-02-08T07:06:49.825Z,12.90
2023-02-08T07:09:11.285Z,12.13
2023-02-08T07:11:32.770Z,11.57
2023-02-08T07:13:55.200Z,11.27
2023-02-08T07:16:18.961Z,12.30
2023-02-08T07:18:40.442Z,12.60
2023-02-08T07:21:01.943Z,13.73
2023-02-08T07:23:23.854Z,12.87
2023-02-08T07:25:45.991Z,11.60
2023-02-08T07:28:07.480Z,13.20
2023-02-08T07:30:29.148Z,13.43
2023-02-08T07:32:50.675Z,21.17
2023-02-08T07:35:12.218Z,23.27
2023-02-08T07:37:33.874Z,22.53
2023-02-08T07:39:55.902Z,22.33
2023-02-08T07:42:17.474Z,21.47
2023-02-08T07:44:39.433Z,21.87
2023-02-08T07:47:02.048Z,23.20
2023-02-08T07:49:23.555Z,26.47
2023-02-08T07:51:44.993Z,28.03
2023-02-08T07:54:06.660Z,24.77
2023-02-08T07:56:28.089Z,27.43
2023-02-08T07:58:49.531Z,29.57
2023-02-08T08:01:21.910Z,33.20
2023-02-08T08:03:43.900Z,42.17
2023-02-08T08:06:05.629Z,41.10
2023-02-08T08:08:27.112Z,52.13
2023-02-08T08:10:49.516Z,64.47
2023-02-08T08:13:11.028Z,61.87
2023-02-08T08:15:32.725Z,52.87
2023-02-08T08:17:54.258Z,55.17
2023-02-08T08:20:15.867Z,65.03
2023-02-08T08:22:37.961Z,77.10
2023-02-08T08:25:00.041Z,75.77
2023-02-08T08:27:21.509Z,74.83
2023-02-08T08:29:43.007Z,60.97
2023-02-08T08:32:05.311Z,57.67
2023-02-08T08:34:30.000Z,57.33
2023-02-08T08:36:51.466Z,60.77
2023-02-08T08:39:12.965Z,61.97
2023-02-08T08:41:36.043Z,64.93
2023-02-08T08:43:57.542Z,76.03
2023-02-08T08:46:19.673Z,91.27
2023-02-08T08:48:41.151Z,90.60
2023-02-08T08:51:03.219Z,95.37
2023-02-08T08:53:25.631Z,94.43
2023-02-08T08:55:47.188Z,96.13
2023-02-08T08:58:08.607Z,85.67
2023-02-08T09:00:30.066Z,57.30
2023-02-08T09:02:51.574Z,52.70
2023-02-08T09:05:13.039Z,48.13
2023-02-08T09:07:35.364Z,53.80
2023-02-08T09:09:56.869Z,49.93
2023-02-08T09:12:18.288Z,48.33
2023-02-08T09:14:39.771Z,46.17
2023-02-08T09:17:01.253Z,45.33
2023-02-08T09:19:22.686Z,48.73
2023-02-08T09:21:44.296Z,50.40
2023-02-08T09:24:06.727Z,51.90
2023-02-08T09:26:28.880Z,46.33
2023-02-08T09:28:50.314Z,42.03
2023-02-08T09:31:24.016Z,42.40
2023-02-08T09:33:46.020Z,39.60
2023-02-08T09:36:08.599Z,36.20
2023-02-08T09:38:30.214Z,32.70
2023-02-08T09:41:18.313Z,31.07
2023-02-08T09:43:54.439Z,27.03
2023-02-08T09:46:19.292Z,9.17
2023-02-08T09:48:41.248Z,10.20
2023-02-08T09:51:11.021Z,8.47
2023-02-08T09:53:40.371Z,7.30
2023-02-08T09:56:05.890Z,7.37
2023-02-08T09:58:37.786Z,7.53
2023-02-08T10:01:00.023Z,8.10
2023-02-08T10:03:38.546Z,7.70
2023-02-08T10:06:00.624Z,7.87
2023-02-08T10:08:28.882Z,8.27
2023-02-08T10:11:19.718Z,7.00
2023-02-08T10:14:06.451Z,6.90
2023-02-08T10:17:05.140Z,6.93
2023-02-08T10:19:52.743Z,8.13
2023-02-08T10:22:36.522Z,7.00
2023-02-08T10:25:10.249Z,6.47
2023-02-08T10:27:49.784Z,6.43
2023-02-08T10:30:22.515Z,5.80
2023-02-08T10:33:09.492Z,6.77
2023-02-08T10:35:37.146Z,6.73
2023-02-08T10:37:59.078Z,7.13
2023-02-08T10:40:31.084Z,6.47
2023-02-08T10:43:09.711Z,6.33
2023-02-08T10:46:03.201Z,6.60
2023-02-08T10:49:07.540Z,6.57
2023-02-08T10:51:30.626Z,6.57
2023-02-08T10:53:53.584Z,6.50
2023-02-08T10:56:30.009Z,5.87
2023-02-08T10:58:52.241Z,7.20
2023-02-08T11:01:13.932Z,6.60
2023-02-08T11:03:38.351Z,12.73
2023-02-08T11:05:59.810Z,10.43
2023-02-08T11:08:24.432Z,6.37
2023-02-08T11:11:07.745Z,6.50
2023-02-08T11:13:41.450Z,9.53
2023-02-08T11:16:05.411Z,7.70
2023-02-08T11:18:47.217Z,6.10
2023-02-08T11:21:22.534Z,7.07
2023-02-08T11:23:51.452Z,7.60
2023-02-08T11:26:18.858Z,6.90
2023-02-08T11:28:40.626Z,7.47
2023-02-08T11:31:14.902Z,5.87
2023-02-08T11:33:36.876Z,4.93
2023-02-08T11:36:07.689Z,5.53
2023-02-08T11:38:30.465Z,5.70
2023-02-08T11:40:53.507Z,5.67
2023-02-08T11:43:23.208Z,4.83
2023-02-08T11:45:46.457Z,5.10
2023-02-08T11:48:22.554Z,5.30
2023-02-08T11:50:44.050Z,5.10
2023-02-08T11:53:21.194Z,5.13
2023-02-08T11:55:43.568Z,4.53
2023-02-08T11:58:25.524Z,5.37
2023-02-08T12:01:04.251Z,5.17
2023-02-08T12:03:33.661Z,4.77
2023-02-08T12:06:20.271Z,3.80
2023-02-08T12:08:59.856Z,4.47
2023-02-08T12:11:44.703Z,3.90
2023-02-08T12:14:40.247Z,4.03
2023-02-08T12:17:24.932Z,4.10
2023-02-08T12:19:46.301Z,4.33
2023-02-08T12:22:27.528Z,3.93
2023-02-08T12:25:27.269Z,4.00
2023-02-08T12:28:02.492Z,3.77
2023-02-08T12:30:34.079Z,4.03
2023-02-08T12:33:34.394Z,4.57
2023-02-08T12:36:31.663Z,3.97
2023-02-08T12:39:26.159Z,5.27
2023-02-08T12:41:47.812Z,4.33
2023-02-08T12:44:29.424Z,4.80
2023-02-08T12:47:01.048Z,4.83
2023-02-08T12:49:33.411Z,4.60
2023-02-08T12:52:10.426Z,4.33
2023-02-08T12:54:40.552Z,4.50
2023-02-08T12:57:03.622Z,4.13
2023-02-08T12:59:33.125Z,4.07
2023-02-08T13:02:03.689Z,3.67
2023-02-08T13:04:34.142Z,3.63
2023-02-08T13:07:13.210Z,4.03
2023-02-08T13:09:48.546Z,4.13
2023-02-08T13:12:21.753Z,4.60
2023-02-08T13:14:49.401Z,3.77
2023-02-08T13:17:13.607Z,4.47
2023-02-08T13:20:02.698Z,5.67
2023-02-08T13:22:24.899Z,4.17
2023-02-08T13:24:50.363Z,3.47
2023-02-08T13:27:19.134Z,3.37
2023-02-08T13:29:40.976Z,3.33
2023-02-08T13:32:08.253Z,3.10
2023-02-08T13:34:42.498Z,3.93
2023-02-08T13:37:24.623Z,3.33
2023-02-08T13:39:48.394Z,3.37
2023-02-08T13:42:33.089Z,3.10
2023-02-08T13:44:56.961Z,3.10
2023-02-08T13:47:31.715Z,3.37
2023-02-08T13:50:00.884Z,3.73
2023-02-08T13:52:48.887Z,3.90
2023-02-08T13:55:29.009Z,3.30
2023-02-08T13:57:55.982Z,3.03
2023-02-08T14:00:27.959Z,4.33
2023-02-08T14:03:15.688Z,3.33
2023-02-08T14:05:51.518Z,3.13
2023-02-08T14:08:31.373Z,3.47
2023-02-08T14:11:28.684Z,3.37
2023-02-08T14:13:59.774Z,3.10
2023-02-08T14:16:27.433Z,3.43
2023-02-08T14:19:04.627Z,3.57
2023-02-08T14:21:40.623Z,3.37
2023-02-08T14:24:09.176Z,3.27
2023-02-08T14:26:31.324Z,3.10
2023-02-08T14:28:59.565Z,3.37
2023-02-08T14:31:22.811Z,3.43
2023-02-08T14:33:53.744Z,3.30
2023-02-08T14:36:31.968Z,3.50
2023-02-08T14:39:08.603Z,3.20
2023-02-08T14:41:51.096Z,3.20
2023-02-08T14:44:37.468Z,3.03
2023-02-08T14:46:58.989Z,2.83
2023-02-08T14:49:20.798Z,2.50
2023-02-08T14:51:49.837Z,3.00
2023-02-08T14:54:21.480Z,3.63
2023-02-08T14:56:54.827Z,3.23
2023-02-08T14:59:20.883Z,3.10
2023-02-08T15:01:45.212Z,3.33
2023-02-08T15:04:07.450Z,2.90
2023-02-08T15:06:38.014Z,3.20
2023-02-08T15:09:00.023Z,3.13
2023-02-08T15:11:25.071Z,3.23
2023-02-08T15:13:50.134Z,3.87
2023-02-08T15:16:12.569Z,3.50
2023-02-08T15:18:34.099Z,2.93
2023-02-08T15:21:05.394Z,3.00
2023-02-08T15:23:26.863Z,3.37
2023-02-08T15:26:22.284Z,3.33
2023-02-08T15:28:44.675Z,3.80
2023-02-08T15:31:14.415Z,3.40
2023-02-08T15:33:40.266Z,3.40
2023-02-08T15:36:07.893Z,3.40
2023-02-08T15:38:30.187Z,3.43
2023-02-08T15:41:02.209Z,3.90
2023-02-08T15:43:23.631Z,3.50
2023-02-08T15:45:56.184Z,2.83
2023-02-08T15:48:17.660Z,3.53
2023-02-08T15:50:39.265Z,3.00
2023-02-08T15:53:04.491Z,3.10
2023-02-08T15:55:31.230Z,2.87
2023-02-08T15:57:55.354Z,2.93
2023-02-08T16:00:24.741Z,3.40
2023-02-08T16:02:54.702Z,2.67
2023-02-08T16:05:24.051Z,3.00
2023-02-08T16:07:46.858Z,2.97
2023-02-08T16:10:21.207Z,3.23
2023-02-08T16:12:44.719Z,3.10
2023-02-08T16:15:06.486Z,3.30
2023-02-08T16:17:46.451Z,3.37
2023-02-08T16:20:35.492Z,3.30
2023-02-08T16:23:00.120Z,3.30
2023-02-08T16:25:24.342Z,3.77
2023-02-08T16:27:48.952Z,17.60
2023-02-08T16:30:21.775Z,9.13
2023-02-08T16:32:44.471Z,7.00
2023-02-08T16:35:23.283Z,8.57
2023-02-08T16:37:44.838Z,5.47
2023-02-08T16:40:48.902Z,5.33
2023-02-08T16:43:29.787Z,3.80
2023-02-08T16:46:11.221Z,4.80
2023-02-08T16:48:35.934Z,5.23
2023-02-08T16:50:57.417Z,5.60
2023-02-08T16:53:18.843Z,5.37
2023-02-08T16:55:40.333Z,5.63
2023-02-08T16:58:01.871Z,5.20
2023-02-08T17:00:28.450Z,5.40
2023-02-08T17:02:50.549Z,5.87
2023-02-08T17:05:12.315Z,5.93
2023-02-08T17:07:33.795Z,4.87
2023-02-08T17:09:56.346Z,5.77
2023-02-08T17:12:22.757Z,6.07
2023-02-08T17:14:44.469Z,6.07
2023-02-08T17:17:05.923Z,5.57
2023-02-08T17:19:27.549Z,6.00
2023-02-08T17:21:49.022Z,6.60
2023-02-08T17:24:10.477Z,5.00
2023-02-08T17:26:39.719Z,5.30
2023-02-08T17:29:01.214Z,6.93
2023-02-08T17:31:23.615Z,5.93
2023-02-08T17:33:45.352Z,5.90
2023-02-08T17:36:09.039Z,5.27
2023-02-08T17:38:30.589Z,5.77
2023-02-08T17:40:52.049Z,5.57
2023-02-08T17:43:13.531Z,7.07
2023-02-08T17:45:39.337Z,6.80
2023-02-08T17:48:01.019Z,11.73
2023-02-08T17:50:23.253Z,9.40
2023-02-08T17:52:45.912Z,8.00
2023-02-08T17:55:09.593Z,9.43
2023-02-08T17:57:32.698Z,9.30
2023-02-08T17:59:54.111Z,7.57
2023-02-08T18:02:15.562Z,7.30
2023-02-08T18:04:37.318Z,6.83
2023-02-08T18:06:58.763Z,6.27
2023-02-08T18:09:20.301Z,6.80
2023-02-08T18:11:42.472Z,7.53
2023-02-08T18:14:03.901Z,7.67
2023-02-08T18:16:27.247Z,7.20
2023-02-08T18:18:48.864Z,6.50
2023-02-08T18:21:17.705Z,7.20
2023-02-08T18:23:39.603Z,7.13
2023-02-08T18:26:06.699Z,7.60
2023-02-08T18:28:28.180Z,8.03
2023-02-08T18:30:49.865Z,8.47
2023-02-08T18:33:12.451Z,10.00
2023-02-08T18:35:33.859Z,9.20
2023-02-08T18:37:55.282Z,9.80
2023-02-08T18:40:17.311Z,9.90
2023-02-08T18:42:38.751Z,10.17
2023-02-08T18:45:00.204Z,12.07
2023-02-08T18:47:21.874Z,12.00
2023-02-08T18:49:43.391Z,18.13
2023-02-08T18:52:04.872Z,11.20
2023-02-08T18:54:26.329Z,9.60
2023-02-08T18:56:51.834Z,9.70
2023-02-08T18:59:13.279Z,11.47
2023-02-08T19:01:35.013Z,12.77
2023-02-08T19:03:58.185Z,14.33
2023-02-08T19:06:24.386Z,13.53
2023-02-08T19:08:45.943Z,14.20
2023-02-08T19:11:26.690Z,16.47
2023-02-08T19:13:49.114Z,12.67
2023-02-08T19:16:10.997Z,13.23
2023-02-08T19:18:32.624Z,12.93
2023-02-08T19:20:54.032Z,9.47
2023-02-08T19:23:15.491Z,17.83
2023-02-08T19:25:38.685Z,15.53
2023-02-08T19:28:00.229Z,24.90
2023-02-08T19:30:22.205Z,20.50
2023-02-08T19:32:43.752Z,21.50
2023-02-08T19:35:05.301Z,14.37
2023-02-08T19:37:26.803Z,13.37
2023-02-08T19:39:48.330Z,11.23
2023-02-08T19:42:09.886Z,8.50
2023-02-08T19:44:31.423Z,8.97
2023-02-08T19:46:54.256Z,9.43
2023-02-08T19:49:16.280Z,8.00
2023-02-08T19:51:37.991Z,7.53
2023-02-08T19:54:00.969Z,6.80
2023-02-08T19:56:22.545Z,7.43
2023-02-08T19:58:44.470Z,7.40
2023-02-08T20:01:11.570Z,7.50
2023-02-08T20:03:33.087Z,7.33
2023-02-08T20:05:55.214Z,7.87
2023-02-08T20:08:17.560Z,7.13
2023-02-08T20:10:44.733Z,7.23
2023-02-08T20:13:06.701Z,8.33
2023-02-08T20:15:28.125Z,8.00
2023-02-08T20:17:49.591Z,7.70
2023-02-08T20:20:11.360Z,8.13
2023-02-08T20:22:32.853Z,7.67
2023-02-08T20:24:54.333Z,7.57
2023-02-08T20:27:15.857Z,7.53
2023-02-08T20:29:37.296Z,8.77
2023-02-08T20:31:59.542Z,7.90
2023-02-08T20:34:21.345Z,8.43
2023-02-08T20:36:49.709Z,8.77
2023-02-08T20:39:16.466Z,8.67
2023-02-08T20:41:38.538Z,9.13
2023-02-08T20:44:00.589Z,8.73
2023-02-08T20:46:24.870Z,9.40
2023-02-08T20:48:46.364Z,9.33
2023-02-08T20:51:10.891Z,8.47
2023-02-08T20:53:33.334Z,9.63
2023-02-08T20:55:54.806Z,8.97
2023-02-08T20:58:16.255Z,9.67
2023-02-08T21:00:42.716Z,9.63
2023-02-08T21:03:04.994Z,9.97
2023-02-08T21:05:26.426Z,9.13
2023-02-08T21:07:47.885Z,9.57
2023-02-08T21:10:09.460Z,9.37
2023-02-08T21:12:33.083Z,9.00
2023-02-08T21:14:54.789Z,10.33
2023-02-08T21:17:16.257Z,10.67
2023-02-08T21:19:39.574Z,10.57
2023-02-08T21:22:02.370Z,10.10
2023-02-08T21:24:24.362Z,10.30
2023-02-08T21:26:46.299Z,11.17
2023-02-08T21:29:07.829Z,10.70
2023-02-08T21:31:29.440Z,11.00
2023-02-08T21:33:51.843Z,11.97
2023-02-08T21:36:16.189Z,11.53
2023-02-08T21:38:38.506Z,10.87
2023-02-08T21:41:06.197Z,11.23
2023-02-08T21:43:27.652Z,11.90
2023-02-08T21:45:49.166Z,11.80
2023-02-08T21:48:10.624Z,11.77
2023-02-08T21:50:50.750Z,13.30
2023-02-08T21:53:32.019Z,11.77
2023-02-08T21:55:53.434Z,13.10
2023-02-08T21:58:14.887Z,12.97
2023-02-08T22:00:36.329Z,12.43
2023-02-08T22:02:57.817Z,12.97
2023-02-08T22:05:37.866Z,11.33
2023-02-08T22:07:59.584Z,11.73
2023-02-08T22:10:24.470Z,13.17
2023-02-08T22:12:47.274Z,12.87
2023-02-08T22:15:11.614Z,12.60
2023-02-08T22:17:33.055Z,12.97
2023-02-08T22:19:54.466Z,13.03
2023-02-08T22:22:15.947Z,12.30
2023-02-08T22:24:37.408Z,12.70
2023-02-08T22:26:58.869Z,12.23
2023-02-08T22:29:20.338Z,12.87
2023-02-08T22:31:41.875Z,12.43
2023-02-08T22:34:03.685Z,12.73
2023-02-08T22:36:25.138Z,12.83
2023-02-08T22:38:46.740Z,14.40
2023-02-08T22:41:13.323Z,14.23
2023-02-08T22:43:34.776Z,13.33
2023-02-08T22:45:59.852Z,14.17
2023-02-08T22:48:21.399Z,13.20
2023-02-08T22:50:43.092Z,12.90
2023-02-08T22:53:04.643Z,13.23
2023-02-08T22:55:26.850Z,13.50
2023-02-08T22:57:48.345Z,13.27
2023-02-08T23:00:10.605Z,13.20
2023-02-08T23:02:32.202Z,12.57
2023-02-08T23:04:53.783Z,12.83
2023-02-08T23:07:15.206Z,13.20
2023-02-08T23:09:36.680Z,13.73
2023-02-08T23:11:58.129Z,13.53
2023-02-08T23:14:19.690Z,12.73
2023-02-08T23:16:41.138Z,13.10
2023-02-08T23:19:03.084Z,13.30
2023-02-08T23:21:24.593Z,13.37
2023-02-08T23:23:47.871Z,13.87
2023-02-08T23:26:15.316Z,12.93
2023-02-08T23:28:37.327Z,12.80
2023-02-08T23:30:58.990Z,12.73
2023-02-08T23:33:20.521Z,13.37
2023-02-08T23:35:42.024Z,14.10
2023-02-08T23:38:03.525Z,12.27
2023-02-08T23:40:25.002Z,12.73
2023-02-08T23:42:46.684Z,13.23
2023-02-08T23:45:08.553Z,12.73
2023-02-08T23:47:30.995Z,14.13
2023-02-08T23:49:53.268Z,13.43
2023-02-08T23:52:15.020Z,13.47
2023-02-08T23:54:37.065Z,13.20
2023-02-08T23:56:58.588Z,15.03
2023-02-08T23:59:20.072Z,14.23
